Time;durP1;ratioP1;P1;durP2;ratioP2;P2;SDS_P1;SDS_P2;PMS_P1;PMS_P2;Temp;Humidity;BMP_temperature;BMP_pressure;BME280_temperature;BME280_humidity;BME280_pressure;Samples;Min_cycle;Max_cycle;Signal;HPM_P1;HPM_P2
2023/05/09 00:01:09;;;;;;;3.50;1.70;;;;;;;;;;6272785;22;19999;-76
2023/05/09 00:03:34;;;;;;;3.25;1.60;;;;;;;;;;6272308;22;20073;-77
2023/05/09 00:06:00;;;;;;;4.07;1.75;;;;;;;;;;6272008;22;20379;-76
2023/05/09 00:08:26;;;;;;;3.53;1.55;;;;;;;;;;6271755;22;20025;-76
2023/05/09 00:10:52;;;;;;;3.20;1.42;;;;;;;;;;6272237;22;20067;-76
2023/05/09 00:13:18;;;;;;;3.03;1.38;;;;;;;;;;6271934;22;20090;-77
2023/05/09 00:15:45;;;;;;;4.43;1.63;;;;;;;;;;6272271;22;20049;-77
2023/05/09 00:18:11;;;;;;;4.22;1.67;;;;;;;;;;6272116;22;20011;-76
2023/05/09 00:20:39;;;;;;;3.95;1.70;;;;;;;;;;6272343;22;20048;-77
2023/05/09 00:23:05;;;;;;;4.28;1.83;;;;;;;;;;6271311;22;20023;-76
2023/05/09 00:25:31;;;;;;;7.63;2.03;;;;;;;;;;6271856;22;20035;-76
2023/05/09 00:27:56;;;;;;;5.78;2.03;;;;;;;;;;6272201;22;20007;-76
2023/05/09 00:30:22;;;;;;;7.50;2.00;;;;;;;;;;6271479;22;20003;-76
2023/05/09 00:32:48;;;;;;;5.25;2.17;;;;;;;;;;6272261;22;20015;-76
2023/05/09 00:35:13;;;;;;;7.28;3.10;;;;;;;;;;6272024;22;20011;-76
2023/05/09 00:37:38;;;;;;;9.50;3.42;;;;;;;;;;6270015;22;20094;-76
2023/05/09 00:40:06;;;;;;;8.18;3.10;;;;;;;;;;6243002;22;20037;-77
2023/05/09 00:42:32;;;;;;;11.73;3.80;;;;;;;;;;6271402;22;20065;-75
2023/05/09 00:44:57;;;;;;;11.20;3.38;;;;;;;;;;6270966;22;20405;-76
2023/05/09 00:47:23;;;;;;;8.63;3.45;;;;;;;;;;6271383;22;20000;-76
2023/05/09 00:49:49;;;;;;;8.95;3.00;;;;;;;;;;6270896;22;19999;-77
2023/05/09 00:52:14;;;;;;;7.80;2.90;;;;;;;;;;6270710;22;20000;-76
2023/05/09 00:54:40;;;;;;;8.50;2.92;;;;;;;;;;6270540;22;20031;-77
2023/05/09 00:57:05;;;;;;;5.60;2.50;;;;;;;;;;6271185;22;20004;-76
2023/05/09 00:59:31;;;;;;;5.80;2.55;;;;;;;;;;6271021;22;20004;-76
2023/05/09 01:01:56;;;;;;;5.88;2.15;;;;;;;;;;6270874;22;20042;-76
2023/05/09 01:04:22;;;;;;;7.90;2.55;;;;;;;;;;6270822;22;20016;-76
2023/05/09 01:06:54;;;;;;;7.25;2.20;;;;;;;;;;6270449;22;20022;-77
2023/05/09 01:09:37;;;;;;;5.63;2.53;;;;;;;;;;6243024;22;20031;-77
2023/05/09 01:12:34;;;;;;;5.30;2.30;;;;;;;;;;6270891;22;20060;-76
2023/05/09 01:15:11;;;;;;;7.90;2.40;;;;;;;;;;6270766;22;20432;-76
2023/05/09 01:17:51;;;;;;;4.97;2.00;;;;;;;;;;6270976;22;20004;-78
2023/05/09 01:20:27;;;;;;;6.25;2.17;;;;;;;;;;6270455;22;20007;-76
2023/05/09 01:23:26;;;;;;;6.13;2.03;;;;;;;;;;6270320;22;20006;-77
2023/05/09 01:26:01;;;;;;;5.45;2.00;;;;;;;;;;6270852;22;20008;-76
2023/05/09 01:28:45;;;;;;;4.80;2.10;;;;;;;;;;6271155;22;19999;-76
2023/05/09 01:31:11;;;;;;;4.60;1.98;;;;;;;;;;6270953;22;20000;-77
2023/05/09 01:33:40;;;;;;;4.90;1.80;;;;;;;;;;6243900;22;20003;-76
2023/05/09 01:36:11;;;;;;;4.05;1.80;;;;;;;;;;6270425;22;20031;-76
2023/05/09 01:38:37;;;;;;;7.40;1.83;;;;;;;;;;6270292;22;20039;-76
2023/05/09 01:41:04;;;;;;;6.70;1.85;;;;;;;;;;6270204;22;20536;-76
2023/05/09 01:43:32;;;;;;;4.30;1.80;;;;;;;;;;6270702;22;20081;-77
2023/05/09 01:45:59;;;;;;;7.07;2.00;;;;;;;;;;6270461;22;20102;-77
2023/05/09 01:48:27;;;;;;;6.35;2.08;;;;;;;;;;6270761;22;20000;-77
2023/05/09 01:50:54;;;;;;;8.98;2.35;;;;;;;;;;6269862;22;20467;-78
2023/05/09 01:53:21;;;;;;;7.32;1.90;;;;;;;;;;6270445;22;20026;-76
2023/05/09 01:55:48;;;;;;;4.70;1.77;;;;;;;;;;6270032;22;20418;-77
2023/05/09 01:58:15;;;;;;;8.10;2.20;;;;;;;;;;6270474;22;20018;-77
2023/05/09 02:00:42;;;;;;;5.00;1.80;;;;;;;;;;6269921;22;20068;-78
2023/05/09 02:03:08;;;;;;;5.10;1.83;;;;;;;;;;6270944;22;20004;-77
2023/05/09 02:05:33;;;;;;;7.28;1.95;;;;;;;;;;6269838;22;20007;-77
2023/05/09 02:08:00;;;;;;;8.10;2.33;;;;;;;;;;6269953;22;20007;-76
2023/05/09 02:10:26;;;;;;;5.35;1.92;;;;;;;;;;6269720;22;20011;-77
2023/05/09 02:12:53;;;;;;;5.82;2.17;;;;;;;;;;6270273;22;20007;-76
2023/05/09 02:15:18;;;;;;;7.80;2.00;;;;;;;;;;6242685;22;20069;-77
2023/05/09 02:17:44;;;;;;;5.97;2.00;;;;;;;;;;6270049;22;20003;-76
2023/05/09 02:20:10;;;;;;;6.47;2.20;;;;;;;;;;6269631;22;20031;-76
2023/05/09 02:22:38;;;;;;;8.13;2.28;;;;;;;;;;6269908;22;19999;-78
2023/05/09 02:25:06;;;;;;;6.40;2.00;;;;;;;;;;6270094;22;20086;-78
2023/05/09 02:27:33;;;;;;;10.25;2.17;;;;;;;;;;6270371;22;20015;-77
2023/05/09 02:30:03;;;;;;;8.52;1.92;;;;;;;;;;6242296;22;20356;-77
2023/05/09 02:32:30;;;;;;;4.77;2.17;;;;;;;;;;6269884;22;20000;-76
2023/05/09 02:34:59;;;;;;;6.53;2.33;;;;;;;;;;6269542;22;20543;-76
2023/05/09 02:37:26;;;;;;;6.45;2.20;;;;;;;;;;6269939;22;20004;-76
2023/05/09 02:39:52;;;;;;;5.22;2.00;;;;;;;;;;6242394;22;20018;-76
2023/05/09 02:42:21;;;;;;;10.68;1.90;;;;;;;;;;6270083;22;19999;-76
2023/05/09 02:44:47;;;;;;;7.03;1.95;;;;;;;;;;6269875;22;20309;-77
2023/05/09 02:47:12;;;;;;;6.13;2.03;;;;;;;;;;6269879;22;20461;-76
2023/05/09 02:49:38;;;;;;;7.38;2.17;;;;;;;;;;6269448;22;20003;-77
2023/05/09 02:52:03;;;;;;;6.15;1.98;;;;;;;;;;6269194;22;20088;-78
2023/05/09 02:54:29;;;;;;;5.57;1.98;;;;;;;;;;6270379;22;20042;-75
2023/05/09 02:56:54;;;;;;;6.38;2.42;;;;;;;;;;6269590;22;20106;-76
2023/05/09 02:59:20;;;;;;;8.40;2.25;;;;;;;;;;6270259;22;20006;-76
2023/05/09 03:01:45;;;;;;;10.73;2.33;;;;;;;;;;6269907;22;20124;-76
2023/05/09 03:04:11;;;;;;;7.10;2.17;;;;;;;;;;6242585;22;20007;-76
2023/05/09 03:06:36;;;;;;;7.10;2.10;;;;;;;;;;6269028;22;20597;-77
2023/05/09 03:09:02;;;;;;;6.32;1.85;;;;;;;;;;6269987;22;20042;-77
2023/05/09 03:11:29;;;;;;;7.63;1.88;;;;;;;;;;6269996;22;20057;-77
2023/05/09 03:13:55;;;;;;;8.30;2.25;;;;;;;;;;6269793;22;20008;-77
2023/05/09 03:16:21;;;;;;;5.88;1.90;;;;;;;;;;6269666;22;20099;-77
2023/05/09 03:18:46;;;;;;;6.60;1.90;;;;;;;;;;6269732;22;20066;-77
2023/05/09 03:21:11;;;;;;;4.90;1.92;;;;;;;;;;6268663;22;20015;-77
2023/05/09 03:23:38;;;;;;;4.38;2.00;;;;;;;;;;6269348;22;20297;-76
2023/05/09 03:26:03;;;;;;;6.10;2.10;;;;;;;;;;6269332;22;20483;-76
2023/05/09 03:28:29;;;;;;;7.63;2.40;;;;;;;;;;6269643;22;19999;-76
2023/05/09 03:30:55;;;;;;;5.93;1.80;;;;;;;;;;6241545;22;19999;-76
2023/05/09 03:33:20;;;;;;;6.43;1.73;;;;;;;;;;6270112;22;20014;-77
2023/05/09 03:35:45;;;;;;;6.00;1.90;;;;;;;;;;6270040;22;20004;-77
2023/05/09 03:38:11;;;;;;;5.30;1.77;;;;;;;;;;6268613;22;20016;-76
2023/05/09 03:40:37;;;;;;;7.28;1.75;;;;;;;;;;6268812;22;20529;-77
2023/05/09 03:43:02;;;;;;;9.77;2.08;;;;;;;;;;6269851;22;20011;-77
2023/05/09 03:45:27;;;;;;;6.85;1.98;;;;;;;;;;6270026;22;20008;-77
2023/05/09 03:47:53;;;;;;;5.45;1.67;;;;;;;;;;6270079;22;20347;-76
2023/05/09 03:50:18;;;;;;;4.88;1.95;;;;;;;;;;6269485;22;20004;-76
2023/05/09 03:52:44;;;;;;;4.22;1.80;;;;;;;;;;6268778;22;20061;-78
2023/05/09 03:55:09;;;;;;;8.10;2.08;;;;;;;;;;6269760;22;19999;-77
2023/05/09 03:57:35;;;;;;;4.35;1.90;;;;;;;;;;6269212;22;20562;-77
2023/05/09 04:00:01;;;;;;;4.57;1.75;;;;;;;;;;6269851;22;20458;-77
2023/05/09 04:02:27;;;;;;;5.22;1.85;;;;;;;;;;6268760;22;20049;-77
2023/05/09 04:04:52;;;;;;;4.65;1.70;;;;;;;;;;6242117;22;20047;-78
2023/05/09 04:07:19;;;;;;;3.50;1.70;;;;;;;;;;6269283;22;20015;-77
2023/05/09 04:09:45;;;;;;;8.45;2.00;;;;;;;;;;6269844;22;20069;-76
2023/05/09 04:12:10;;;;;;;5.13;2.03;;;;;;;;;;6269218;22;20432;-77
2023/05/09 04:14:37;;;;;;;6.47;2.15;;;;;;;;;;6269402;22;20507;-76
2023/05/09 04:17:03;;;;;;;9.35;2.20;;;;;;;;;;6269277;22;20087;-76
2023/05/09 04:19:28;;;;;;;5.50;2.10;;;;;;;;;;6269901;22;20133;-76
2023/05/09 04:21:53;;;;;;;5.35;1.95;;;;;;;;;;6241013;22;20133;-77
2023/05/09 04:24:19;;;;;;;6.07;2.22;;;;;;;;;;6269432;22;20044;-76
2023/05/09 04:26:45;;;;;;;5.90;2.00;;;;;;;;;;6269123;22;20089;-76
2023/05/09 04:29:10;;;;;;;8.85;2.30;;;;;;;;;;6242043;22;20014;-77
2023/05/09 04:31:35;;;;;;;10.02;2.47;;;;;;;;;;6268696;22;20003;-78
2023/05/09 04:34:01;;;;;;;10.75;2.30;;;;;;;;;;6269298;22;20004;-76
2023/05/09 04:36:27;;;;;;;7.82;2.20;;;;;;;;;;6269745;22;20619;-77
2023/05/09 04:38:53;;;;;;;6.32;2.00;;;;;;;;;;6270660;22;20043;-78
2023/05/09 04:41:18;;;;;;;8.63;2.35;;;;;;;;;;6271020;22;20019;-77
2023/05/09 04:43:44;;;;;;;8.57;2.40;;;;;;;;;;6271072;22;20000;-77
2023/05/09 04:46:09;;;;;;;5.95;2.40;;;;;;;;;;6271335;22;20004;-77
2023/05/09 04:48:35;;;;;;;8.38;2.30;;;;;;;;;;6271413;22;20126;-76
2023/05/09 04:51:01;;;;;;;6.53;1.95;;;;;;;;;;6270533;22;20349;-76
2023/05/09 04:53:27;;;;;;;6.07;2.22;;;;;;;;;;6270856;22;20000;-77
2023/05/09 04:55:53;;;;;;;7.78;2.40;;;;;;;;;;6271024;22;20078;-75
2023/05/09 04:58:18;;;;;;;6.53;2.50;;;;;;;;;;6270875;22;19996;-76
2023/05/09 05:00:45;;;;;;;7.70;2.50;;;;;;;;;;6271017;22;20011;-77
2023/05/09 05:03:10;;;;;;;5.70;2.25;;;;;;;;;;6270438;22;20000;-77
2023/05/09 05:05:36;;;;;;;6.25;2.10;;;;;;;;;;6271305;22;20091;-77
2023/05/09 05:08:01;;;;;;;9.20;2.47;;;;;;;;;;6271345;22;20071;-76
2023/05/09 05:10:27;;;;;;;8.35;2.22;;;;;;;;;;6270697;22;20000;-77
2023/05/09 05:12:52;;;;;;;6.28;2.13;;;;;;;;;;6269866;22;20026;-77
2023/05/09 05:15:18;;;;;;;8.23;2.35;;;;;;;;;;6271019;22;20008;-77
2023/05/09 05:17:44;;;;;;;8.85;2.22;;;;;;;;;;6270638;22;20014;-76
2023/05/09 05:20:09;;;;;;;6.38;2.20;;;;;;;;;;6270947;22;20027;-76
2023/05/09 05:22:35;;;;;;;6.22;2.20;;;;;;;;;;6270338;22;20035;-76
2023/05/09 05:25:02;;;;;;;7.20;2.47;;;;;;;;;;6270542;22;20004;-76
2023/05/09 05:27:28;;;;;;;4.75;2.03;;;;;;;;;;6270462;22;20003;-76
2023/05/09 05:29:53;;;;;;;6.10;1.92;;;;;;;;;;6270997;22;20006;-77
2023/05/09 05:32:18;;;;;;;5.53;1.77;;;;;;;;;;6270594;22;20004;-76
2023/05/09 05:34:44;;;;;;;6.22;2.00;;;;;;;;;;6270667;22;20016;-76
2023/05/09 05:37:10;;;;;;;6.97;1.98;;;;;;;;;;6269999;22;20007;-76
2023/05/09 05:39:35;;;;;;;5.72;1.88;;;;;;;;;;6270692;22;20064;-77
2023/05/09 05:42:00;;;;;;;5.97;1.92;;;;;;;;;;6270232;22;20004;-77
2023/05/09 05:44:26;;;;;;;8.02;2.13;;;;;;;;;;6270224;22;20004;-76
2023/05/09 05:46:51;;;;;;;5.03;1.90;;;;;;;;;;6270161;22;20011;-77
2023/05/09 05:49:19;;;;;;;6.50;2.47;;;;;;;;;;6270389;22;20007;-77
2023/05/09 05:51:44;;;;;;;4.85;2.10;;;;;;;;;;6269793;22;20004;-77
2023/05/09 05:54:10;;;;;;;5.22;2.15;;;;;;;;;;6270517;22;20043;-77
2023/05/09 05:56:35;;;;;;;4.78;2.00;;;;;;;;;;6270701;22;20155;-77
2023/05/09 05:59:01;;;;;;;6.70;2.22;;;;;;;;;;6243021;22;20073;-77
2023/05/09 06:01:26;;;;;;;9.40;2.40;;;;;;;;;;6270068;22;20062;-77
2023/05/09 06:03:54;;;;;;;9.65;2.40;;;;;;;;;;6270165;22;20038;-76
2023/05/09 06:06:21;;;;;;;5.38;2.10;;;;;;;;;;6270191;22;20041;-78
2023/05/09 06:08:48;;;;;;;8.18;2.75;;;;;;;;;;6270104;22;20075;-76
2023/05/09 06:11:15;;;;;;;7.72;2.45;;;;;;;;;;6243411;22;20428;-75
2023/05/09 06:13:40;;;;;;;13.20;2.75;;;;;;;;;;6270109;22;19999;-77
2023/05/09 06:16:07;;;;;;;10.13;2.45;;;;;;;;;;6270664;22;20000;-78
2023/05/09 06:18:34;;;;;;;5.80;2.40;;;;;;;;;;6270314;22;20015;-77
2023/05/09 06:21:00;;;;;;;6.88;2.63;;;;;;;;;;6269839;22;19999;-78
2023/05/09 06:23:25;;;;;;;6.75;2.58;;;;;;;;;;6242886;22;20085;-76
2023/05/09 06:25:50;;;;;;;10.90;2.97;;;;;;;;;;6270488;22;20034;-78
2023/05/09 06:28:21;;;;;;;8.88;2.78;;;;;;;;;;6270248;22;20011;-78
2023/05/09 06:30:49;;;;;;;7.55;2.60;;;;;;;;;;6243577;22;20007;-77
2023/05/09 06:33:15;;;;;;;12.70;3.05;;;;;;;;;;6269821;22;20000;-76
2023/05/09 06:35:40;;;;;;;9.90;2.60;;;;;;;;;;6270369;22;20010;-77
2023/05/09 06:38:06;;;;;;;7.05;2.90;;;;;;;;;;6269265;22;20034;-76
2023/05/09 06:40:32;;;;;;;8.48;2.80;;;;;;;;;;6269715;22;20015;-76
2023/05/09 06:42:57;;;;;;;7.70;2.85;;;;;;;;;;6269753;22;20054;-76
2023/05/09 06:45:23;;;;;;;11.15;2.65;;;;;;;;;;6269997;22;20004;-76
2023/05/09 06:47:48;;;;;;;10.57;3.03;;;;;;;;;;6269956;22;20007;-77
2023/05/09 06:50:13;;;;;;;11.52;2.80;;;;;;;;;;6270056;22;20053;-77
2023/05/09 06:52:39;;;;;;;8.73;2.83;;;;;;;;;;6269157;22;20000;-77
2023/05/09 06:55:05;;;;;;;10.73;3.25;;;;;;;;;;6269629;22;20003;-77
2023/05/09 06:57:31;;;;;;;8.52;3.00;;;;;;;;;;6269756;22;20000;-77
2023/05/09 06:59:56;;;;;;;13.93;2.65;;;;;;;;;;6269067;22;20074;-77
2023/05/09 07:02:21;;;;;;;7.57;2.83;;;;;;;;;;6242285;22;20431;-76
2023/05/09 07:04:50;;;;;;;11.02;3.08;;;;;;;;;;6269436;22;20003;-79
2023/05/09 07:07:16;;;;;;;12.05;3.15;;;;;;;;;;6270092;22;20097;-79
2023/05/09 07:09:41;;;;;;;10.40;2.90;;;;;;;;;;6269423;22;20404;-79
2023/05/09 07:12:07;;;;;;;9.63;3.45;;;;;;;;;;6269684;22;20074;-77
2023/05/09 07:14:32;;;;;;;10.25;2.75;;;;;;;;;;6269399;22;20004;-77
2023/05/09 07:16:57;;;;;;;11.45;3.13;;;;;;;;;;6269691;22;20070;-77
2023/05/09 07:19:23;;;;;;;9.13;2.97;;;;;;;;;;6269664;22;20006;-77
2023/05/09 07:21:48;;;;;;;8.50;2.80;;;;;;;;;;6269146;22;20420;-77
2023/05/09 07:24:14;;;;;;;10.18;4.32;;;;;;;;;;6269151;22;20007;-76
2023/05/09 07:26:39;;;;;;;17.60;4.78;;;;;;;;;;6242720;22;19996;-78
2023/05/09 07:29:04;;;;;;;14.38;5.40;;;;;;;;;;6269454;22;20000;-78
2023/05/09 07:31:30;;;;;;;13.60;4.40;;;;;;;;;;6242506;22;20012;-76
2023/05/09 07:33:55;;;;;;;11.30;4.00;;;;;;;;;;6269104;22;20007;-77
2023/05/09 07:36:21;;;;;;;13.27;3.72;;;;;;;;;;6270711;22;20049;-76
2023/05/09 07:38:47;;;;;;;13.32;3.47;;;;;;;;;;6268974;22;20403;-76
2023/05/09 07:41:13;;;;;;;9.77;3.40;;;;;;;;;;6270263;22;20039;-78
2023/05/09 07:43:38;;;;;;;9.40;3.33;;;;;;;;;;6269343;22;20003;-76
2023/05/09 07:46:04;;;;;;;7.50;2.80;;;;;;;;;;6269682;22;20094;-77
2023/05/09 07:48:29;;;;;;;7.40;3.00;;;;;;;;;;6269509;22;19999;-76
2023/05/09 07:50:55;;;;;;;11.25;2.90;;;;;;;;;;6268968;22;20000;-77
2023/05/09 07:53:20;;;;;;;10.88;3.08;;;;;;;;;;6269333;22;20005;-77
2023/05/09 07:55:49;;;;;;;9.63;2.70;;;;;;;;;;6269518;22;20451;-77
2023/05/09 07:58:15;;;;;;;9.48;3.17;;;;;;;;;;6269351;22;20085;-77
2023/05/09 08:00:41;;;;;;;9.20;3.25;;;;;;;;;;6242186;22;20081;-78
2023/05/09 08:03:06;;;;;;;8.98;2.65;;;;;;;;;;6269534;22;20000;-77
2023/05/09 08:05:32;;;;;;;8.27;3.05;;;;;;;;;;6269200;22;20421;-77
2023/05/09 08:07:57;;;;;;;12.40;3.58;;;;;;;;;;6269568;22;20006;-76
2023/05/09 08:10:23;;;;;;;10.20;3.03;;;;;;;;;;6269802;22;20008;-76
2023/05/09 08:12:50;;;;;;;8.85;2.78;;;;;;;;;;6271037;22;20344;-77
2023/05/09 08:15:15;;;;;;;13.00;3.42;;;;;;;;;;6243821;22;20008;-77
2023/05/09 08:17:40;;;;;;;7.45;2.75;;;;;;;;;;6245171;22;20014;-76
2023/05/09 08:20:07;;;;;;;12.15;2.67;;;;;;;;;;6244461;22;20015;-76
2023/05/09 08:22:33;;;;;;;5.68;2.50;;;;;;;;;;6270526;22;20637;-77
2023/05/09 08:24:58;;;;;;;9.98;2.83;;;;;;;;;;6270963;22;20004;-76
2023/05/09 08:27:24;;;;;;;12.88;3.00;;;;;;;;;;6244466;22;20065;-77
2023/05/09 08:29:49;;;;;;;11.45;3.28;;;;;;;;;;6271082;22;20057;-76
2023/05/09 08:32:15;;;;;;;11.40;2.97;;;;;;;;;;6271327;22;20467;-77
2023/05/09 08:34:40;;;;;;;12.10;2.50;;;;;;;;;;6270943;22;20141;-76
2023/05/09 08:37:06;;;;;;;9.02;2.90;;;;;;;;;;6270588;22;20000;-77
2023/05/09 08:39:33;;;;;;;8.10;2.50;;;;;;;;;;6270700;22;20015;-76
2023/05/09 08:42:00;;;;;;;8.60;2.75;;;;;;;;;;6271293;22;20004;-76
2023/05/09 08:44:27;;;;;;;10.27;2.58;;;;;;;;;;6270352;22;20535;-77
2023/05/09 08:46:57;;;;;;;8.77;2.50;;;;;;;;;;6270884;22;20027;-77
2023/05/09 08:49:23;;;;;;;23.65;5.05;;;;;;;;;;6271305;22;20379;-77
2023/05/09 08:51:49;;;;;;;8.38;2.80;;;;;;;;;;6272114;22;20122;-77
2023/05/09 08:54:15;;;;;;;65.97;10.52;;;;;;;;;;6270762;22;20004;-76
2023/05/09 08:56:41;;;;;;;8.35;2.80;;;;;;;;;;6271299;22;20075;-77
2023/05/09 08:59:07;;;;;;;11.45;2.55;;;;;;;;;;6271117;22;20058;-76
2023/05/09 09:01:34;;;;;;;8.35;2.90;;;;;;;;;;6270825;22;19999;-77
2023/05/09 09:04:01;;;;;;;8.27;2.20;;;;;;;;;;6243429;22;20030;-77
2023/05/09 09:06:28;;;;;;;37.90;6.60;;;;;;;;;;6270591;22;20003;-77
2023/05/09 09:08:55;;;;;;;9.68;2.45;;;;;;;;;;6270775;22;20038;-76
2023/05/09 09:11:21;;;;;;;7.88;2.42;;;;;;;;;;6270782;22;20454;-77
2023/05/09 09:13:50;;;;;;;7.80;2.38;;;;;;;;;;6270714;22;20352;-76
2023/05/09 09:16:23;;;;;;;11.25;2.20;;;;;;;;;;6270766;22;20451;-76
2023/05/09 09:18:53;;;;;;;6.88;2.08;;;;;;;;;;6270713;22;20050;-76
2023/05/09 09:21:19;;;;;;;6.15;1.95;;;;;;;;;;6270356;22;20004;-77
2023/05/09 09:23:46;;;;;;;7.07;2.08;;;;;;;;;;6270560;22;20004;-77
2023/05/09 09:26:12;;;;;;;11.93;3.10;;;;;;;;;;6243219;22;20571;-77
2023/05/09 09:28:38;;;;;;;6.03;2.25;;;;;;;;;;6271502;22;20000;-77
2023/05/09 09:31:21;;;;;;;11.52;2.10;;;;;;;;;;6270447;22;20014;-77
2023/05/09 09:33:47;;;;;;;7.18;1.92;;;;;;;;;;6270671;22;20012;-77
2023/05/09 09:36:13;;;;;;;9.73;1.98;;;;;;;;;;6242487;22;20043;-76
2023/05/09 09:38:45;;;;;;;4.72;1.70;;;;;;;;;;6270421;22;20082;-78
2023/05/09 09:41:11;;;;;;;5.05;1.55;;;;;;;;;;6270511;22;20482;-78
2023/05/09 09:43:37;;;;;;;6.88;1.80;;;;;;;;;;6270584;22;20091;-77
2023/05/09 09:46:03;;;;;;;5.82;1.70;;;;;;;;;;6270206;22;20650;-77
2023/05/09 09:48:34;;;;;;;5.95;1.80;;;;;;;;;;6271330;22;20057;-77
2023/05/09 09:51:17;;;;;;;8.82;1.77;;;;;;;;;;6270006;22;20004;-77
2023/05/09 09:53:43;;;;;;;4.55;1.65;;;;;;;;;;6243172;22;20756;-78
2023/05/09 09:56:09;;;;;;;9.00;1.90;;;;;;;;;;6270287;22;20008;-76
2023/05/09 09:58:35;;;;;;;4.72;1.60;;;;;;;;;;6270343;22;20344;-77
2023/05/09 10:01:08;;;;;;;7.30;1.77;;;;;;;;;;6270391;22;20420;-78
2023/05/09 10:03:42;;;;;;;5.18;1.63;;;;;;;;;;6270204;22;20340;-76
2023/05/09 10:06:12;;;;;;;5.50;1.83;;;;;;;;;;6269798;22;20010;-77
2023/05/09 10:08:43;;;;;;;9.25;1.80;;;;;;;;;;6270518;22;20003;-78
2023/05/09 10:11:09;;;;;;;6.25;1.80;;;;;;;;;;6270216;22;20024;-78
2023/05/09 10:13:36;;;;;;;4.55;1.65;;;;;;;;;;6270636;22;20000;-77
2023/05/09 10:16:03;;;;;;;6.18;2.03;;;;;;;;;;6270303;22;20003;-77
2023/05/09 10:18:33;;;;;;;7.95;2.10;;;;;;;;;;6270473;22;20000;-78
2023/05/09 10:21:03;;;;;;;6.05;1.70;;;;;;;;;;6269935;22;20003;-78
2023/05/09 10:23:31;;;;;;;4.85;1.65;;;;;;;;;;6270594;22;20372;-77
2023/05/09 10:26:21;;;;;;;3.15;1.40;;;;;;;;;;6270063;22;20007;-78
2023/05/09 10:28:48;;;;;;;4.47;1.50;;;;;;;;;;6270455;22;20007;-78
2023/05/09 10:31:20;;;;;;;4.78;1.70;;;;;;;;;;6269867;22;20015;-78
2023/05/09 10:33:48;;;;;;;5.10;1.73;;;;;;;;;;6270074;22;20004;-79
2023/05/09 10:36:17;;;;;;;5.57;1.50;;;;;;;;;;6269595;22;20074;-78
2023/05/09 10:38:46;;;;;;;5.18;1.70;;;;;;;;;;6270424;22;20018;-78
2023/05/09 10:41:12;;;;;;;5.57;1.92;;;;;;;;;;6270394;22;20007;-78
2023/05/09 10:43:38;;;;;;;5.13;1.75;;;;;;;;;;6270113;22;20075;-77
2023/05/09 10:46:04;;;;;;;3.65;1.80;;;;;;;;;;6269896;22;20643;-78
2023/05/09 10:48:31;;;;;;;4.95;1.77;;;;;;;;;;6269512;22;20073;-77
2023/05/09 10:50:58;;;;;;;4.97;1.85;;;;;;;;;;6269490;22;20011;-77
2023/05/09 10:53:43;;;;;;;6.22;2.20;;;;;;;;;;6242936;22;20483;-76
2023/05/09 10:56:09;;;;;;;7.65;2.50;;;;;;;;;;6269670;22;20010;-77
2023/05/09 10:58:39;;;;;;;5.47;2.22;;;;;;;;;;6270683;22;20004;-77
2023/05/09 11:01:09;;;;;;;4.40;1.83;;;;;;;;;;6269624;22;20011;-77
2023/05/09 11:03:57;;;;;;;4.60;1.98;;;;;;;;;;6242911;22;20004;-77
2023/05/09 11:06:43;;;;;;;4.70;2.10;;;;;;;;;;6269174;22;20053;-76
2023/05/09 11:09:35;;;;;;;5.22;1.92;;;;;;;;;;6270688;22;20000;-76
2023/05/09 11:12:04;;;;;;;5.95;2.15;;;;;;;;;;6269310;22;20010;-76
2023/05/09 11:14:52;;;;;;;4.15;2.00;;;;;;;;;;6269604;22;20010;-76
2023/05/09 11:17:20;;;;;;;7.70;2.40;;;;;;;;;;6269504;22;20503;-77
2023/05/09 11:19:46;;;;;;;4.78;2.28;;;;;;;;;;6269822;22;20000;-76
2023/05/09 11:22:11;;;;;;;5.50;2.20;;;;;;;;;;6268641;22;20022;-76
2023/05/09 11:24:37;;;;;;;5.07;2.03;;;;;;;;;;6269336;22;20014;-77
2023/05/09 11:27:14;;;;;;;5.90;2.03;;;;;;;;;;6269724;22;20083;-77
2023/05/09 11:29:51;;;;;;;6.07;2.30;;;;;;;;;;6269798;22;20004;-76
2023/05/09 11:32:16;;;;;;;5.20;2.22;;;;;;;;;;6269423;22;20004;-77
2023/05/09 11:34:44;;;;;;;4.70;2.47;;;;;;;;;;6269980;22;20011;-77
2023/05/09 11:37:10;;;;;;;5.38;2.00;;;;;;;;;;6268983;22;20003;-77
2023/05/09 11:39:55;;;;;;;5.75;2.30;;;;;;;;;;6269745;22;20086;-76
2023/05/09 11:42:22;;;;;;;8.98;2.85;;;;;;;;;;6269763;22;20062;-76
2023/05/09 11:44:48;;;;;;;4.13;2.40;;;;;;;;;;6269821;22;20085;-76
2023/05/09 11:47:21;;;;;;;4.40;2.10;;;;;;;;;;6271265;22;20537;-76
2023/05/09 11:49:48;;;;;;;4.22;2.10;;;;;;;;;;6244563;22;20008;-77
2023/05/09 11:52:14;;;;;;;5.20;2.33;;;;;;;;;;6271030;22;20004;-77
2023/05/09 11:54:39;;;;;;;4.97;2.22;;;;;;;;;;6271566;22;20075;-77
2023/05/09 11:57:06;;;;;;;4.47;2.10;;;;;;;;;;6271052;22;20046;-77
2023/05/09 11:59:35;;;;;;;5.35;2.38;;;;;;;;;;6271347;22;20047;-77
2023/05/09 12:02:05;;;;;;;5.05;2.15;;;;;;;;;;6243955;22;20007;-78
2023/05/09 12:04:31;;;;;;;5.45;1.90;;;;;;;;;;6271167;22;20046;-76
2023/05/09 12:07:00;;;;;;;3.70;1.60;;;;;;;;;;6270601;22;20000;-77
2023/05/09 12:09:33;;;;;;;3.73;1.50;;;;;;;;;;6271721;22;20003;-77
2023/05/09 12:12:00;;;;;;;4.22;1.20;;;;;;;;;;6271409;22;20492;-76
2023/05/09 12:14:30;;;;;;;3.78;1.20;;;;;;;;;;6271515;22;20474;-76
2023/05/09 12:16:56;;;;;;;2.33;1.33;;;;;;;;;;6271262;22;20004;-76
2023/05/09 12:19:23;;;;;;;2.63;1.00;;;;;;;;;;6244249;22;20030;-76
2023/05/09 12:21:48;;;;;;;1.55;0.90;;;;;;;;;;6271480;22;20011;-77
2023/05/09 12:24:19;;;;;;;1.48;0.90;;;;;;;;;;6271264;22;20025;-77
2023/05/09 12:26:45;;;;;;;2.25;1.08;;;;;;;;;;6271030;22;20511;-78
2023/05/09 12:29:12;;;;;;;3.28;1.00;;;;;;;;;;6271281;22;20006;-77
2023/05/09 12:31:37;;;;;;;1.73;0.90;;;;;;;;;;6271716;22;20003;-77
2023/05/09 12:34:03;;;;;;;2.97;0.98;;;;;;;;;;6271308;22;20326;-77
2023/05/09 12:36:33;;;;;;;1.33;0.93;;;;;;;;;;6270224;22;19999;-76
2023/05/09 12:38:59;;;;;;;3.72;0.90;;;;;;;;;;6271165;22;20073;-76
2023/05/09 12:41:24;;;;;;;3.42;1.05;;;;;;;;;;6271246;22;20008;-76
2023/05/09 12:43:50;;;;;;;2.88;0.93;;;;;;;;;;6270974;22;20004;-77
2023/05/09 12:46:20;;;;;;;3.40;1.10;;;;;;;;;;6243501;22;20008;-76
2023/05/09 12:48:48;;;;;;;2.87;1.10;;;;;;;;;;6271246;22;20024;-76
2023/05/09 12:51:19;;;;;;;1.73;0.90;;;;;;;;;;6270623;22;20068;-76
2023/05/09 12:53:44;;;;;;;1.65;0.90;;;;;;;;;;6270721;22;20003;-77
2023/05/09 12:56:23;;;;;;;1.40;1.00;;;;;;;;;;6270991;22;20000;-76
2023/05/09 12:58:50;;;;;;;1.20;0.88;;;;;;;;;;6270686;22;20004;-76
2023/05/09 13:01:16;;;;;;;2.33;0.98;;;;;;;;;;6271192;22;20004;-76
2023/05/09 13:03:43;;;;;;;1.90;1.00;;;;;;;;;;6270672;22;20409;-77
2023/05/09 13:06:12;;;;;;;2.10;1.00;;;;;;;;;;6269945;22;20007;-76
2023/05/09 13:08:38;;;;;;;3.25;0.98;;;;;;;;;;6270509;22;20301;-77
2023/05/09 13:11:04;;;;;;;3.72;1.20;;;;;;;;;;6270834;22;20030;-76
2023/05/09 13:13:30;;;;;;;2.00;1.00;;;;;;;;;;6271500;22;19999;-77
2023/05/09 13:15:56;;;;;;;2.67;1.15;;;;;;;;;;6243801;22;20136;-76
2023/05/09 13:18:23;;;;;;;2.13;1.10;;;;;;;;;;6271667;22;20356;-76
2023/05/09 13:20:51;;;;;;;1.10;0.90;;;;;;;;;;6271104;22;20003;-76
2023/05/09 13:23:17;;;;;;;4.40;1.10;;;;;;;;;;6243561;22;20004;-76
2023/05/09 13:25:42;;;;;;;1.10;0.90;;;;;;;;;;6270702;22;20008;-79
2023/05/09 13:28:07;;;;;;;1.75;1.10;;;;;;;;;;6271003;22;20008;-76
2023/05/09 13:30:33;;;;;;;3.08;1.20;;;;;;;;;;6244492;22;20060;-77
2023/05/09 13:32:59;;;;;;;3.58;1.17;;;;;;;;;;6270688;22;20089;-76
2023/05/09 13:35:24;;;;;;;1.27;0.90;;;;;;;;;;6243583;22;20008;-76
2023/05/09 13:37:50;;;;;;;2.45;1.15;;;;;;;;;;6269918;22;20011;-77
2023/05/09 13:40:15;;;;;;;1.58;1.10;;;;;;;;;;6243768;22;20082;-77
2023/05/09 13:42:40;;;;;;;2.15;1.13;;;;;;;;;;6270773;22;20011;-77
2023/05/09 13:45:07;;;;;;;3.30;1.00;;;;;;;;;;6270154;22;20035;-77
2023/05/09 13:47:32;;;;;;;2.28;1.20;;;;;;;;;;6242935;22;20034;-77
2023/05/09 13:49:58;;;;;;;2.20;1.10;;;;;;;;;;6270686;22;20007;-77
2023/05/09 13:52:23;;;;;;;2.15;1.10;;;;;;;;;;6269998;22;20008;-77
2023/05/09 13:54:49;;;;;;;1.33;1.08;;;;;;;;;;6270771;22;20327;-78
2023/05/09 13:57:14;;;;;;;3.05;1.20;;;;;;;;;;6270091;22;20443;-77
2023/05/09 13:59:41;;;;;;;3.25;1.20;;;;;;;;;;6270447;22;20070;-78
2023/05/09 14:02:09;;;;;;;1.92;1.00;;;;;;;;;;6270357;22;20020;-78
2023/05/09 14:04:35;;;;;;;4.03;1.30;;;;;;;;;;6243099;22;20008;-79
2023/05/09 14:07:00;;;;;;;2.85;1.30;;;;;;;;;;6269649;22;20057;-77
2023/05/09 14:09:27;;;;;;;2.40;1.25;;;;;;;;;;6270123;22;20340;-78
2023/05/09 14:11:52;;;;;;;2.63;1.20;;;;;;;;;;6270281;22;19999;-78
2023/05/09 14:14:23;;;;;;;3.25;1.30;;;;;;;;;;6270301;22;20003;-77
2023/05/09 14:16:50;;;;;;;2.75;1.48;;;;;;;;;;6270076;22;20004;-78
2023/05/09 14:19:16;;;;;;;2.80;1.38;;;;;;;;;;6270073;22;20328;-77
2023/05/09 14:21:47;;;;;;;2.22;1.30;;;;;;;;;;6269757;22;20078;-77
2023/05/09 14:24:13;;;;;;;2.58;1.40;;;;;;;;;;6269995;22;20004;-77
2023/05/09 14:26:38;;;;;;;2.88;1.27;;;;;;;;;;6270271;22;19999;-77
2023/05/09 14:29:04;;;;;;;2.22;1.30;;;;;;;;;;6242976;22;20597;-77
2023/05/09 14:31:31;;;;;;;3.17;1.30;;;;;;;;;;6270299;22;20038;-77
2023/05/09 14:33:58;;;;;;;1.67;1.00;;;;;;;;;;6269872;22;20003;-77
2023/05/09 14:36:25;;;;;;;3.15;1.20;;;;;;;;;;6269141;22;20004;-76
2023/05/09 14:38:51;;;;;;;2.00;1.20;;;;;;;;;;6269213;22;20060;-77
2023/05/09 14:41:16;;;;;;;1.85;1.13;;;;;;;;;;6270578;22;20006;-77